sensor_id;sensor_type;location;lat;lon;timestamp;temperature;humidity
33109;HTU21D;19481;51.118;6.940;2022-12-10T00:04:28;-1.63;76.11
33109;HTU21D;19481;51.118;6.940;2022-12-10T00:09:30;-1.63;76.37
33109;HTU21D;19481;51.118;6.940;2022-12-10T00:14:31;-1.63;76.29
33109;HTU21D;19481;51.118;6.940;2022-12-10T00:19:34;-1.78;76.10
33109;HTU21D;19481;51.118;6.940;2022-12-10T00:24:36;-1.79;76.22
33109;HTU21D;19481;51.118;6.940;2022-12-10T00:29:37;-1.89;76.18
33109;HTU21D;19481;51.118;6.940;2022-12-10T00:34:40;-1.99;75.94
33109;HTU21D;19481;51.118;6.940;2022-12-10T00:39:42;-2.02;76.15
33109;HTU21D;19481;51.118;6.940;2022-12-10T00:44:44;-2.04;76.03
33109;HTU21D;19481;51.118;6.940;2022-12-10T00:49:46;-2.07;76.08
33109;HTU21D;19481;51.118;6.940;2022-12-10T00:54:48;-2.15;75.89
33109;HTU21D;19481;51.118;6.940;2022-12-10T00:59:50;-2.15;76.10
33109;HTU21D;19481;51.118;6.940;2022-12-10T01:04:53;-2.19;75.82
33109;HTU21D;19481;51.118;6.940;2022-12-10T01:09:55;-2.37;75.84
33109;HTU21D;19481;51.118;6.940;2022-12-10T01:14:56;-2.33;76.02
33109;HTU21D;19481;51.118;6.940;2022-12-10T01:19:59;-2.46;75.99
33109;HTU21D;19481;51.118;6.940;2022-12-10T01:25:01;-2.47;76.06
33109;HTU21D;19481;51.118;6.940;2022-12-10T01:30:03;-2.42;76.04
33109;HTU21D;19481;51.118;6.940;2022-12-10T01:35:07;-2.56;75.67
33109;HTU21D;19481;51.118;6.940;2022-12-10T01:40:10;-2.56;76.05
33109;HTU21D;19481;51.118;6.940;2022-12-10T01:45:12;-2.67;75.81
33109;HTU21D;19481;51.118;6.940;2022-12-10T01:50:15;-2.64;76.02
33109;HTU21D;19481;51.118;6.940;2022-12-10T01:55:50;-2.58;75.86
33109;HTU21D;19481;51.118;6.940;2022-12-10T02:01:02;-2.63;75.76
33109;HTU21D;19481;51.118;6.940;2022-12-10T02:06:19;-2.71;75.74
33109;HTU21D;19481;51.118;6.940;2022-12-10T02:11:28;-2.71;75.81
33109;HTU21D;19481;51.118;6.940;2022-12-10T02:16:34;-2.86;75.63
33109;HTU21D;19481;51.118;6.940;2022-12-10T02:21:41;-2.89;75.81
33109;HTU21D;19481;51.118;6.940;2022-12-10T02:26:45;-2.91;75.75
33109;HTU21D;19481;51.118;6.940;2022-12-10T02:31:52;-2.86;75.99
33109;HTU21D;19481;51.118;6.940;2022-12-10T02:36:55;-2.80;75.80
33109;HTU21D;19481;51.118;6.940;2022-12-10T02:42:00;-2.79;75.85
33109;HTU21D;19481;51.118;6.940;2022-12-10T02:47:05;-2.60;75.60
33109;HTU21D;19481;51.118;6.940;2022-12-10T02:52:08;-2.46;75.58
33109;HTU21D;19481;51.118;6.940;2022-12-10T02:57:18;-2.43;75.31
33109;HTU21D;19481;51.118;6.940;2022-12-10T03:02:29;-2.07;75.59
33109;HTU21D;19481;51.118;6.940;2022-12-10T03:07:35;-1.99;75.56
33109;HTU21D;19481;51.118;6.940;2022-12-10T03:12:42;-2.04;75.40
33109;HTU21D;19481;51.118;6.940;2022-12-10T03:17:48;-1.98;75.38
33109;HTU21D;19481;51.118;6.940;2022-12-10T03:22:50;-1.90;75.12
33109;HTU21D;19481;51.118;6.940;2022-12-10T03:27:54;-1.75;75.18
33109;HTU21D;19481;51.118;6.940;2022-12-10T03:32:58;-1.59;75.05
33109;HTU21D;19481;51.118;6.940;2022-12-10T03:38:00;-1.44;74.96
33109;HTU21D;19481;51.118;6.940;2022-12-10T03:43:02;-1.36;74.67
33109;HTU21D;19481;51.118;6.940;2022-12-10T03:48:05;-1.32;75.02
33109;HTU21D;19481;51.118;6.940;2022-12-10T03:53:07;-1.30;75.53
33109;HTU21D;19481;51.118;6.940;2022-12-10T03:58:08;-1.33;76.32
33109;HTU21D;19481;51.118;6.940;2022-12-10T04:03:11;-1.17;75.67
33109;HTU21D;19481;51.118;6.940;2022-12-10T04:08:13;-1.06;75.27
33109;HTU21D;19481;51.118;6.940;2022-12-10T04:13:15;-1.01;75.05
33109;HTU21D;19481;51.118;6.940;2022-12-10T04:18:44;-0.95;75.20
33109;HTU21D;19481;51.118;6.940;2022-12-10T04:23:45;-0.89;74.82
33109;HTU21D;19481;51.118;6.940;2022-12-10T04:29:06;-0.88;74.89
33109;HTU21D;19481;51.118;6.940;2022-12-10T04:34:09;-0.94;74.82
33109;HTU21D;19481;51.118;6.940;2022-12-10T04:39:11;-0.93;74.78
33109;HTU21D;19481;51.118;6.940;2022-12-10T04:44:14;-0.84;74.73
33109;HTU21D;19481;51.118;6.940;2022-12-10T04:49:17;-0.94;74.80
33109;HTU21D;19481;51.118;6.940;2022-12-10T04:54:19;-0.82;74.67
33109;HTU21D;19481;51.118;6.940;2022-12-10T04:59:21;-0.93;74.73
33109;HTU21D;19481;51.118;6.940;2022-12-10T05:04:24;-0.99;74.99
33109;HTU21D;19481;51.118;6.940;2022-12-10T05:09:25;-1.01;74.99
33109;HTU21D;19481;51.118;6.940;2022-12-10T05:14:27;-0.86;74.60
33109;HTU21D;19481;51.118;6.940;2022-12-10T05:19:30;-0.87;74.47
33109;HTU21D;19481;51.118;6.940;2022-12-10T05:24:32;-0.76;74.67
33109;HTU21D;19481;51.118;6.940;2022-12-10T05:29:34;-0.75;74.30
33109;HTU21D;19481;51.118;6.940;2022-12-10T05:34:37;-0.71;74.23
33109;HTU21D;19481;51.118;6.940;2022-12-10T05:39:39;-0.69;74.47
33109;HTU21D;19481;51.118;6.940;2022-12-10T05:44:40;-0.69;74.25
33109;HTU21D;19481;51.118;6.940;2022-12-10T05:49:43;-0.71;74.18
33109;HTU21D;19481;51.118;6.940;2022-12-10T05:54:48;-0.60;74.19
33109;HTU21D;19481;51.118;6.940;2022-12-10T05:59:49;-0.62;74.20
33109;HTU21D;19481;51.118;6.940;2022-12-10T06:04:52;-0.68;74.19
33109;HTU21D;19481;51.118;6.940;2022-12-10T06:09:54;-0.64;74.38
33109;HTU21D;19481;51.118;6.940;2022-12-10T06:14:55;-0.69;74.23
33109;HTU21D;19481;51.118;6.940;2022-12-10T06:19:59;-0.72;74.12
33109;HTU21D;19481;51.118;6.940;2022-12-10T06:25:00;-0.70;74.45
33109;HTU21D;19481;51.118;6.940;2022-12-10T06:30:06;-0.75;74.14
33109;HTU21D;19481;51.118;6.940;2022-12-10T06:35:12;-0.80;74.44
33109;HTU21D;19481;51.118;6.940;2022-12-10T06:40:14;-0.65;74.58
33109;HTU21D;19481;51.118;6.940;2022-12-10T06:45:16;-0.69;74.41
33109;HTU21D;19481;51.118;6.940;2022-12-10T06:50:18;-0.71;74.31
33109;HTU21D;19481;51.118;6.940;2022-12-10T06:55:20;-0.77;74.49
33109;HTU21D;19481;51.118;6.940;2022-12-10T07:00:22;-0.80;74.44
33109;HTU21D;19481;51.118;6.940;2022-12-10T07:05:25;-0.77;74.54
33109;HTU21D;19481;51.118;6.940;2022-12-10T07:10:26;-0.73;74.47
33109;HTU21D;19481;51.118;6.940;2022-12-10T07:15:28;-0.69;74.56
33109;HTU21D;19481;51.118;6.940;2022-12-10T07:20:31;-0.57;74.62
33109;HTU21D;19481;51.118;6.940;2022-12-10T07:25:32;-0.52;74.51
33109;HTU21D;19481;51.118;6.940;2022-12-10T07:30:34;-0.50;74.48
33109;HTU21D;19481;51.118;6.940;2022-12-10T07:35:39;-0.49;74.45
33109;HTU21D;19481;51.118;6.940;2022-12-10T07:40:40;-0.45;74.65
33109;HTU21D;19481;51.118;6.940;2022-12-10T07:45:42;-0.42;74.76
33109;HTU21D;19481;51.118;6.940;2022-12-10T07:50:45;-0.31;74.73
33109;HTU21D;19481;51.118;6.940;2022-12-10T07:55:47;-0.34;74.73
33109;HTU21D;19481;51.118;6.940;2022-12-10T08:00:48;-0.21;74.73
33109;HTU21D;19481;51.118;6.940;2022-12-10T08:06:02;-0.14;74.59
33109;HTU21D;19481;51.118;6.940;2022-12-10T08:11:04;0.01;74.55
33109;HTU21D;19481;51.118;6.940;2022-12-10T08:16:09;0.05;74.28
33109;HTU21D;19481;51.118;6.940;2022-12-10T08:21:14;0.15;74.27
33109;HTU21D;19481;51.118;6.940;2022-12-10T08:26:17;0.18;74.19
33109;HTU21D;19481;51.118;6.940;2022-12-10T08:31:20;0.25;74.16
33109;HTU21D;19481;51.118;6.940;2022-12-10T08:36:23;0.24;74.29
33109;HTU21D;19481;51.118;6.940;2022-12-10T08:41:25;0.24;74.36
33109;HTU21D;19481;51.118;6.940;2022-12-10T08:46:27;0.32;74.21
33109;HTU21D;19481;51.118;6.940;2022-12-10T08:51:30;0.35;74.43
33109;HTU21D;19481;51.118;6.940;2022-12-10T08:56:31;0.46;74.31
33109;HTU21D;19481;51.118;6.940;2022-12-10T09:01:33;0.53;74.07
33109;HTU21D;19481;51.118;6.940;2022-12-10T09:06:36;0.61;73.99
33109;HTU21D;19481;51.118;6.940;2022-12-10T09:11:37;0.63;73.96
33109;HTU21D;19481;51.118;6.940;2022-12-10T09:16:39;0.64;73.59
33109;HTU21D;19481;51.118;6.940;2022-12-10T09:21:43;0.67;73.64
33109;HTU21D;19481;51.118;6.940;2022-12-10T09:26:45;0.64;73.85
33109;HTU21D;19481;51.118;6.940;2022-12-10T09:31:49;0.53;73.97
33109;HTU21D;19481;51.118;6.940;2022-12-10T09:36:52;0.50;74.02
33109;HTU21D;19481;51.118;6.940;2022-12-10T09:42:13;0.69;73.79
33109;HTU21D;19481;51.118;6.940;2022-12-10T09:47:18;0.57;73.51
33109;HTU21D;19481;51.118;6.940;2022-12-10T09:52:23;0.58;73.81
33109;HTU21D;19481;51.118;6.940;2022-12-10T09:57:28;0.71;73.93
33109;HTU21D;19481;51.118;6.940;2022-12-10T10:02:31;0.71;73.79
33109;HTU21D;19481;51.118;6.940;2022-12-10T10:07:36;0.72;73.80
33109;HTU21D;19481;51.118;6.940;2022-12-10T10:12:40;0.81;73.77
33109;HTU21D;19481;51.118;6.940;2022-12-10T10:17:42;0.65;73.70
33109;HTU21D;19481;51.118;6.940;2022-12-10T10:22:47;0.63;74.10
33109;HTU21D;19481;51.118;6.940;2022-12-10T10:27:49;0.49;73.84
33109;HTU21D;19481;51.118;6.940;2022-12-10T10:32:53;0.55;74.07
33109;HTU21D;19481;51.118;6.940;2022-12-10T10:38:01;0.69;73.57
33109;HTU21D;19481;51.118;6.940;2022-12-10T10:43:06;0.60;73.77
33109;HTU21D;19481;51.118;6.940;2022-12-10T10:48:16;0.72;73.64
33109;HTU21D;19481;51.118;6.940;2022-12-10T10:53:29;0.74;73.66
33109;HTU21D;19481;51.118;6.940;2022-12-10T10:58:31;0.74;73.78
33109;HTU21D;19481;51.118;6.940;2022-12-10T11:03:35;0.72;73.74
33109;HTU21D;19481;51.118;6.940;2022-12-10T11:08:38;0.80;73.39
33109;HTU21D;19481;51.118;6.940;2022-12-10T11:13:40;0.80;73.72
33109;HTU21D;19481;51.118;6.940;2022-12-10T11:18:51;0.81;73.73
33109;HTU21D;19481;51.118;6.940;2022-12-10T11:23:56;0.79;73.67
33109;HTU21D;19481;51.118;6.940;2022-12-10T11:29:06;0.84;73.72
33109;HTU21D;19481;51.118;6.940;2022-12-10T11:34:16;0.88;73.52
33109;HTU21D;19481;51.118;6.940;2022-12-10T11:39:36;0.99;73.43
33109;HTU21D;19481;51.118;6.940;2022-12-10T11:44:46;1.12;73.22
33109;HTU21D;19481;51.118;6.940;2022-12-10T11:49:57;1.31;72.58
33109;HTU21D;19481;51.118;6.940;2022-12-10T11:55:10;1.26;72.35
33109;HTU21D;19481;51.118;6.940;2022-12-10T12:00:19;1.22;72.48
33109;HTU21D;19481;51.118;6.940;2022-12-10T12:05:48;1.40;72.19
33109;HTU21D;19481;51.118;6.940;2022-12-10T12:11:05;1.52;71.84
33109;HTU21D;19481;51.118;6.940;2022-12-10T12:16:11;1.46;70.37
33109;HTU21D;19481;51.118;6.940;2022-12-10T12:21:15;1.34;71.31
33109;HTU21D;19481;51.118;6.940;2022-12-10T12:26:24;1.43;72.06
33109;HTU21D;19481;51.118;6.940;2022-12-10T12:31:31;1.33;71.84
33109;HTU21D;19481;51.118;6.940;2022-12-10T12:36:35;1.21;70.97
33109;HTU21D;19481;51.118;6.940;2022-12-10T12:41:41;1.16;72.11
33109;HTU21D;19481;51.118;6.940;2022-12-10T12:46:45;1.23;71.63
33109;HTU21D;19481;51.118;6.940;2022-12-10T12:51:50;1.29;72.00
33109;HTU21D;19481;51.118;6.940;2022-12-10T12:56:59;1.28;72.11
33109;HTU21D;19481;51.118;6.940;2022-12-10T13:02:12;1.16;72.34
33109;HTU21D;19481;51.118;6.940;2022-12-10T13:07:33;1.27;72.56
33109;HTU21D;19481;51.118;6.940;2022-12-10T13:12:48;1.21;72.40
33109;HTU21D;19481;51.118;6.940;2022-12-10T13:18:06;1.21;72.32
33109;HTU21D;19481;51.118;6.940;2022-12-10T13:23:30;1.36;72.16
33109;HTU21D;19481;51.118;6.940;2022-12-10T13:28:48;1.25;71.96
33109;HTU21D;19481;51.118;6.940;2022-12-10T13:33:53;1.13;72.19
33109;HTU21D;19481;51.118;6.940;2022-12-10T13:39:21;1.20;72.47
33109;HTU21D;19481;51.118;6.940;2022-12-10T13:44:37;1.37;72.19
33109;HTU21D;19481;51.118;6.940;2022-12-10T13:49:50;0.93;72.51
33109;HTU21D;19481;51.118;6.940;2022-12-10T13:55:02;0.99;72.24
33109;HTU21D;19481;51.118;6.940;2022-12-10T14:00:14;1.03;72.50
33109;HTU21D;19481;51.118;6.940;2022-12-10T14:05:43;1.17;71.98
33109;HTU21D;19481;51.118;6.940;2022-12-10T14:10:50;1.02;71.99
33109;HTU21D;19481;51.118;6.940;2022-12-10T14:15:55;1.03;72.22
33109;HTU21D;19481;51.118;6.940;2022-12-10T14:20:57;1.10;71.81
33109;HTU21D;19481;51.118;6.940;2022-12-10T14:26:05;1.14;71.75
33109;HTU21D;19481;51.118;6.940;2022-12-10T14:31:14;1.09;71.96
33109;HTU21D;19481;51.118;6.940;2022-12-10T14:36:24;1.31;71.48
33109;HTU21D;19481;51.118;6.940;2022-12-10T14:41:29;1.33;71.51
33109;HTU21D;19481;51.118;6.940;2022-12-10T14:46:32;1.26;71.63
33109;HTU21D;19481;51.118;6.940;2022-12-10T14:51:36;1.29;71.64
33109;HTU21D;19481;51.118;6.940;2022-12-10T14:56:38;1.25;71.74
33109;HTU21D;19481;51.118;6.940;2022-12-10T15:01:44;1.20;71.74
33109;HTU21D;19481;51.118;6.940;2022-12-10T15:06:48;1.14;71.93
33109;HTU21D;19481;51.118;6.940;2022-12-10T15:11:53;1.36;71.99
33109;HTU21D;19481;51.118;6.940;2022-12-10T15:16:56;1.37;71.64
33109;HTU21D;19481;51.118;6.940;2022-12-10T15:22:00;1.36;71.77
33109;HTU21D;19481;51.118;6.940;2022-12-10T15:27:14;1.36;71.62
33109;HTU21D;19481;51.118;6.940;2022-12-10T15:32:22;1.41;71.82
33109;HTU21D;19481;51.118;6.940;2022-12-10T15:37:30;1.43;71.70
33109;HTU21D;19481;51.118;6.940;2022-12-10T15:42:39;1.38;71.64
33109;HTU21D;19481;51.118;6.940;2022-12-10T15:47:42;1.41;71.78
33109;HTU21D;19481;51.118;6.940;2022-12-10T15:52:44;1.39;71.85
33109;HTU21D;19481;51.118;6.940;2022-12-10T15:57:46;1.41;71.90
33109;HTU21D;19481;51.118;6.940;2022-12-10T16:02:52;1.34;71.93
33109;HTU21D;19481;51.118;6.940;2022-12-10T16:07:58;1.38;71.96
33109;HTU21D;19481;51.118;6.940;2022-12-10T16:13:05;1.38;72.05
33109;HTU21D;19481;51.118;6.940;2022-12-10T16:18:09;1.38;71.49
33109;HTU21D;19481;51.118;6.940;2022-12-10T16:23:11;1.36;71.64
33109;HTU21D;19481;51.118;6.940;2022-12-10T16:28:16;1.43;71.72
33109;HTU21D;19481;51.118;6.940;2022-12-10T16:33:20;1.46;71.72
33109;HTU21D;19481;51.118;6.940;2022-12-10T16:38:22;1.42;71.77
33109;HTU21D;19481;51.118;6.940;2022-12-10T16:43:26;1.42;72.03
33109;HTU21D;19481;51.118;6.940;2022-12-10T16:48:31;1.40;71.96
33109;HTU21D;19481;51.118;6.940;2022-12-10T16:53:32;1.39;72.06
33109;HTU21D;19481;51.118;6.940;2022-12-10T16:58:36;1.43;72.28
33109;HTU21D;19481;51.118;6.940;2022-12-10T17:03:39;1.41;72.22
33109;HTU21D;19481;51.118;6.940;2022-12-10T17:08:40;1.45;72.24
33109;HTU21D;19481;51.118;6.940;2022-12-10T17:13:43;1.43;72.26
33109;HTU21D;19481;51.118;6.940;2022-12-10T17:18:46;1.43;72.35
33109;HTU21D;19481;51.118;6.940;2022-12-10T17:23:48;1.39;72.10
33109;HTU21D;19481;51.118;6.940;2022-12-10T17:28:50;1.36;72.55
33109;HTU21D;19481;51.118;6.940;2022-12-10T17:33:54;1.45;72.55
33109;HTU21D;19481;51.118;6.940;2022-12-10T17:38:55;1.51;72.38
33109;HTU21D;19481;51.118;6.940;2022-12-10T17:43:57;1.52;72.35
33109;HTU21D;19481;51.118;6.940;2022-12-10T17:49:00;1.49;72.36
33109;HTU21D;19481;51.118;6.940;2022-12-10T17:54:02;1.50;72.41
33109;HTU21D;19481;51.118;6.940;2022-12-10T17:59:03;1.51;72.37
33109;HTU21D;19481;51.118;6.940;2022-12-10T18:04:07;1.50;72.45
33109;HTU21D;19481;51.118;6.940;2022-12-10T18:09:10;1.54;72.32
33109;HTU21D;19481;51.118;6.940;2022-12-10T18:14:12;1.55;72.31
33109;HTU21D;19481;51.118;6.940;2022-12-10T18:19:15;1.55;72.35
33109;HTU21D;19481;51.118;6.940;2022-12-10T18:24:17;1.57;72.34
33109;HTU21D;19481;51.118;6.940;2022-12-10T18:29:19;1.60;72.41
33109;HTU21D;19481;51.118;6.940;2022-12-10T18:34:22;1.58;72.37
33109;HTU21D;19481;51.118;6.940;2022-12-10T18:39:27;1.61;72.38
33109;HTU21D;19481;51.118;6.940;2022-12-10T18:44:32;1.55;72.43
33109;HTU21D;19481;51.118;6.940;2022-12-10T18:49:35;1.49;72.51
33109;HTU21D;19481;51.118;6.940;2022-12-10T18:54:37;1.47;72.51
33109;HTU21D;19481;51.118;6.940;2022-12-10T18:59:40;1.40;72.62
33109;HTU21D;19481;51.118;6.940;2022-12-10T19:04:43;1.34;72.46
33109;HTU21D;19481;51.118;6.940;2022-12-10T19:09:45;1.34;72.62
33109;HTU21D;19481;51.118;6.940;2022-12-10T19:14:48;1.32;72.53
33109;HTU21D;19481;51.118;6.940;2022-12-10T19:19:51;1.32;72.54
33109;HTU21D;19481;51.118;6.940;2022-12-10T19:24:53;1.33;72.32
33109;HTU21D;19481;51.118;6.940;2022-12-10T19:29:54;1.28;72.46
33109;HTU21D;19481;51.118;6.940;2022-12-10T19:34:57;1.27;72.50
33109;HTU21D;19481;51.118;6.940;2022-12-10T19:39:59;1.34;72.43
33109;HTU21D;19481;51.118;6.940;2022-12-10T19:45:00;1.37;72.38
33109;HTU21D;19481;51.118;6.940;2022-12-10T19:50:04;1.37;72.47
33109;HTU21D;19481;51.118;6.940;2022-12-10T19:55:07;1.37;72.41
33109;HTU21D;19481;51.118;6.940;2022-12-10T20:00:14;1.37;72.38
33109;HTU21D;19481;51.118;6.940;2022-12-10T20:05:18;1.36;72.50
33109;HTU21D;19481;51.118;6.940;2022-12-10T20:10:22;1.37;72.54
33109;HTU21D;19481;51.118;6.940;2022-12-10T20:15:24;1.37;72.40
33109;HTU21D;19481;51.118;6.940;2022-12-10T20:20:28;1.37;72.60
33109;HTU21D;19481;51.118;6.940;2022-12-10T20:25:30;1.38;72.54
33109;HTU21D;19481;51.118;6.940;2022-12-10T20:30:32;1.39;72.55
33109;HTU21D;19481;51.118;6.940;2022-12-10T20:35:35;1.32;72.32
33109;HTU21D;19481;51.118;6.940;2022-12-10T20:40:37;1.37;72.77
33109;HTU21D;19481;51.118;6.940;2022-12-10T20:45:39;1.38;72.73
33109;HTU21D;19481;51.118;6.940;2022-12-10T20:50:43;1.46;72.49
33109;HTU21D;19481;51.118;6.940;2022-12-10T20:55:45;1.42;72.41
33109;HTU21D;19481;51.118;6.940;2022-12-10T21:00:46;1.42;72.49
33109;HTU21D;19481;51.118;6.940;2022-12-10T21:05:49;1.43;72.45
33109;HTU21D;19481;51.118;6.940;2022-12-10T21:10:51;1.39;72.66
33109;HTU21D;19481;51.118;6.940;2022-12-10T21:15:55;1.40;72.70
33109;HTU21D;19481;51.118;6.940;2022-12-10T21:21:00;1.28;72.93
33109;HTU21D;19481;51.118;6.940;2022-12-10T21:26:02;1.41;73.03
33109;HTU21D;19481;51.118;6.940;2022-12-10T21:31:04;1.41;72.84
33109;HTU21D;19481;51.118;6.940;2022-12-10T21:36:08;1.43;72.90
33109;HTU21D;19481;51.118;6.940;2022-12-10T21:41:15;1.41;72.52
33109;HTU21D;19481;51.118;6.940;2022-12-10T21:46:37;1.31;72.67
33109;HTU21D;19481;51.118;6.940;2022-12-10T21:51:40;1.34;72.77
33109;HTU21D;19481;51.118;6.940;2022-12-10T21:56:41;1.34;72.64
33109;HTU21D;19481;51.118;6.940;2022-12-10T22:01:43;1.29;72.81
33109;HTU21D;19481;51.118;6.940;2022-12-10T22:06:46;1.23;73.09
33109;HTU21D;19481;51.118;6.940;2022-12-10T22:11:47;1.22;73.16
33109;HTU21D;19481;51.118;6.940;2022-12-10T22:16:49;1.20;73.67
33109;HTU21D;19481;51.118;6.940;2022-12-10T22:21:52;1.24;73.41
33109;HTU21D;19481;51.118;6.940;2022-12-10T22:26:53;1.16;73.61
33109;HTU21D;19481;51.118;6.940;2022-12-10T22:31:55;1.11;73.70
33109;HTU21D;19481;51.118;6.940;2022-12-10T22:36:58;1.12;73.77
33109;HTU21D;19481;51.118;6.940;2022-12-10T22:41:59;1.12;73.77
33109;HTU21D;19481;51.118;6.940;2022-12-10T22:47:01;1.14;73.64
33109;HTU21D;19481;51.118;6.940;2022-12-10T22:52:04;1.07;73.78
33109;HTU21D;19481;51.118;6.940;2022-12-10T22:57:06;1.04;73.81
33109;HTU21D;19481;51.118;6.940;2022-12-10T23:02:07;1.13;73.88
33109;HTU21D;19481;51.118;6.940;2022-12-10T23:07:10;1.07;73.80
33109;HTU21D;19481;51.118;6.940;2022-12-10T23:12:12;1.10;73.73
33109;HTU21D;19481;51.118;6.940;2022-12-10T23:17:31;1.12;73.86
33109;HTU21D;19481;51.118;6.940;2022-12-10T23:22:34;1.05;73.80
33109;HTU21D;19481;51.118;6.940;2022-12-10T23:27:36;1.07;74.04
33109;HTU21D;19481;51.118;6.940;2022-12-10T23:32:38;1.12;73.95
33109;HTU21D;19481;51.118;6.940;2022-12-10T23:37:41;1.12;73.74
33109;HTU21D;19481;51.118;6.940;2022-12-10T23:42:43;1.16;73.85
33109;HTU21D;19481;51.118;6.940;2022-12-10T23:47:44;1.12;73.86
33109;HTU21D;19481;51.118;6.940;2022-12-10T23:52:47;1.16;73.77
33109;HTU21D;19481;51.118;6.940;2022-12-10T23:57:49;1.10;73.93
